Airfield :
LOGIN :

Register | Disclaimer

   EN    FR    IT 

 










Legend :    VFR   Marginal VFR   IFR   Intensive IFR   Very Intensive IFR
Visi :
Ceiling :
>= 8 km
>= 3000ft
5 to 8 km
1000 to 3000 ft
1500m to 5 km
500 to 1000 ft
800 to 1500m
200 to 500 ft
< 800m
< 200 ft
Symbols :   Thunderstorms  Fog  Heavy snow  Heavy precipitations  Wind > 20 kt
SIGMETs :     Misc.  Thunderstorms  Icing  Turbulence  Mountain Waves  Volcanic Ashes






- Airport Elevation : 7 ft
- IATA code : ESH


EGKA - Shoreham

CURRENT METAR :
  • 150950Z 16003KT 9999 FEW008 SCT012 14/13 Q1004

EXPIRED METARs :
  • 150920Z 21001KT 9999 FEW007 SCT043 14/14 Q1004
  • 150850Z 15001KT 9999 VCSH FEW005 SCT035 13/13 Q1004
  • 150820Z 14001KT 9999 FEW006 SCT035 13/13 Q1004
  • 150750Z 01002KT 9999 FEW006 SCT035 12/12 Q1003
  • 150720Z 36005KT 4000 BR FEW003 BKN034 12/12 Q1003

TAF TAF EGKA
Valid from the 15 at 09:00 until the 15 at 18:00 UTC


150807Z 1509/1518 23009KT 9999 FEW008
PROB30
TEMPO 1509/1510 4000 SHRA BKN008
PROB30
TEMPO 1512/1516 7000 SHRA
ATIS : +44 1273 467 372



MET'MAP, your aeronautical weather chart ! - Copyright ORBIFLY December 2007 - Disclaimer

ORBIFLY MET'MAP TEAM :

Programming & Development : Alexandra Zaïnal
Concept & Development : Baudouin d'Aumeries
Co-Development & Prog : Marc-Olivier Méhu
Technical & hardware support : Manuel Goepfert

Contact : metmap@orbifly.com




SOURCES & CREDITS :

   NOAA